createdAt,value
2022-11-05T06:36:24.802Z,100601.91
2022-11-05T06:39:01.997Z,100618.72
2022-11-05T06:42:03.872Z,100610.06
2022-11-05T06:44:35.835Z,100612.50
2022-11-05T06:47:12.601Z,100612.28
2022-11-05T06:49:50.001Z,100605.06
2022-11-05T06:52:31.573Z,100597.84
2022-11-05T06:55:09.740Z,100608.44
2022-11-05T06:57:46.572Z,100606.75
2022-11-05T07:00:24.447Z,100610.25
2022-11-05T07:03:09.266Z,100601.22
2022-11-05T07:05:51.082Z,100597.72
2022-11-05T07:08:33.073Z,100606.53
2022-11-05T07:11:10.372Z,100609.50
2022-11-05T07:13:47.060Z,100626.03
2022-11-05T07:16:24.153Z,100623.47
2022-11-05T07:19:00.784Z,100624.53
2022-11-05T07:21:42.149Z,100628.91
2022-11-05T07:24:22.447Z,100630.81
2022-11-05T07:26:59.507Z,100639.59
2022-11-05T07:29:36.237Z,100642.16
2022-11-05T07:32:13.747Z,100644.78
2022-11-05T07:34:51.877Z,100646.59
2022-11-05T07:37:29.396Z,100655.28
2022-11-05T07:40:10.845Z,100659.50
2022-11-05T07:42:49.089Z,100662.16
2022-11-05T07:45:27.435Z,100655.91
2022-11-05T07:48:06.946Z,100659.28
2022-11-05T07:50:44.176Z,100661.94
2022-11-05T07:53:24.799Z,100654.00
2022-11-05T07:56:04.239Z,100646.56
2022-11-05T07:58:41.270Z,100642.94
2022-11-05T08:01:18.331Z,100650.81
2022-11-05T08:03:55.638Z,100650.59
2022-11-05T08:06:32.321Z,100648.75
2022-11-05T08:09:09.466Z,100661.81
2022-11-05T08:11:51.192Z,100675.78
2022-11-05T08:14:30.146Z,100673.84
2022-11-05T08:17:06.829Z,100679.16
2022-11-05T08:19:44.027Z,100687.88
2022-11-05T08:22:20.756Z,100682.31
2022-11-05T08:25:01.419Z,100687.63
2022-11-05T08:27:43.969Z,100689.13
2022-11-05T08:30:21.255Z,100686.56
2022-11-05T08:33:01.783Z,100685.28
2022-11-05T08:35:40.097Z,100680.94
2022-11-05T08:38:19.156Z,100687.94
2022-11-05T08:41:01.215Z,100692.03
2022-11-05T08:43:40.553Z,100703.38
2022-11-05T08:46:17.523Z,100705.09
2022-11-05T08:48:54.193Z,100696.91
2022-11-05T08:51:31.314Z,100697.66
2022-11-05T08:54:08.774Z,100701.25
2022-11-05T08:56:45.835Z,100702.84
2022-11-05T08:59:25.193Z,100699.84
2022-11-05T09:02:02.372Z,100702.50
2022-11-05T09:04:39.172Z,100714.47
2022-11-05T09:07:16.300Z,100715.09
2022-11-05T09:09:52.944Z,100710.41
2022-11-05T09:12:30.074Z,100722.59
2022-11-05T09:15:10.916Z,100725.03
2022-11-05T09:17:48.002Z,100714.44
2022-11-05T09:20:24.866Z,100714.44
2022-11-05T09:23:02.264Z,100716.34
2022-11-05T09:25:39.132Z,100732.25
2022-11-05T09:28:20.539Z,100736.38
2022-11-05T09:31:00.969Z,100739.75
2022-11-05T09:33:39.504Z,100746.03
2022-11-05T09:36:16.446Z,100751.72
2022-11-05T09:38:54.210Z,100757.88
2022-11-05T09:41:35.999Z,100762.72
2022-11-05T09:44:19.429Z,100769.53
2022-11-05T09:47:05.410Z,100775.78
2022-11-05T09:49:48.492Z,100780.13
2022-11-05T09:52:28.350Z,100781.41
2022-11-05T09:55:07.809Z,100776.09
2022-11-05T09:57:52.428Z,100790.09
2022-11-05T10:00:29.861Z,100789.03
2022-11-05T10:03:16.349Z,100787.72
2022-11-05T10:05:55.391Z,100787.50
2022-11-05T10:08:36.009Z,100792.72
2022-11-05T10:11:19.105Z,100785.34
2022-11-05T10:14:01.894Z,100781.50
2022-11-05T10:16:42.399Z,100782.34
2022-11-05T10:19:26.537Z,100791.69
2022-11-05T10:22:14.364Z,100795.06
2022-11-05T10:24:54.068Z,100808.22
2022-11-05T10:27:36.669Z,100808.84
2022-11-05T10:30:17.768Z,100807.91
2022-11-05T10:33:00.919Z,100802.34
2022-11-05T10:35:55.365Z,100805.72
2022-11-05T10:38:33.040Z,100816.34
2022-11-05T10:41:30.797Z,100807.31
2022-11-05T10:44:27.164Z,100806.84
2022-11-05T10:47:35.706Z,100807.72
2022-11-05T10:50:16.367Z,100827.03
2022-11-05T10:53:03.325Z,100834.13
2022-11-05T10:55:44.867Z,100839.97
2022-11-05T10:58:29.958Z,100845.03
2022-11-05T11:01:17.123Z,100850.44
2022-11-05T11:03:56.276Z,100853.75
2022-11-05T11:06:38.157Z,100852.75
2022-11-05T11:09:30.027Z,100849.03
2022-11-05T11:12:15.335Z,100850.28
2022-11-05T11:15:04.848Z,100856.22
2022-11-05T11:17:42.167Z,100872.78
2022-11-05T11:20:27.859Z,100860.44
2022-11-05T11:23:14.544Z,100862.97
2022-11-05T11:26:01.334Z,100874.22
2022-11-05T11:28:42.978Z,100870.59
2022-11-05T11:31:25.153Z,100877.84
2022-11-05T11:34:07.590Z,100882.41
2022-11-05T11:36:50.046Z,100887.50
2022-11-05T11:39:32.660Z,100882.66
2022-11-05T11:42:20.463Z,100884.63
2022-11-05T11:44:59.465Z,100877.63
2022-11-05T11:47:37.010Z,100887.28
2022-11-05T11:50:40.155Z,100884.88
2022-11-05T11:53:36.878Z,100890.19
2022-11-05T11:56:23.433Z,100894.78
2022-11-05T11:59:13.468Z,100891.41
2022-11-05T12:02:36.548Z,100898.59
2022-11-05T12:05:38.745Z,100904.00
2022-11-05T12:08:56.356Z,100903.78
2022-11-05T12:11:44.988Z,100907.16
2022-11-05T12:14:43.678Z,100914.19
2022-11-05T12:17:42.746Z,100920.22
2022-11-05T12:20:58.244Z,100928.19
2022-11-05T12:24:16.551Z,100937.84
2022-11-05T12:27:06.778Z,100943.16
2022-11-05T12:30:00.879Z,100942.94
2022-11-05T12:32:59.306Z,100949.97
2022-11-05T12:35:53.441Z,100947.31
2022-11-05T12:39:02.352Z,100954.06
2022-11-05T12:41:46.997Z,100958.44
2022-11-05T12:44:52.017Z,100955.06
2022-11-05T12:47:57.405Z,100963.03
2022-11-05T12:50:43.478Z,100967.34
2022-11-05T12:53:43.318Z,100957.47
2022-11-05T12:56:28.071Z,100960.97
2022-11-05T12:59:09.974Z,100961.09
2022-11-05T13:02:06.669Z,100957.47
2022-11-05T13:04:48.675Z,100956.59
2022-11-05T13:07:33.746Z,100960.13
2022-11-05T13:10:23.375Z,100964.47
2022-11-05T13:13:24.393Z,100962.25
2022-11-05T13:16:07.476Z,100970.75
2022-11-05T13:18:53.797Z,100963.50
2022-11-05T13:21:33.298Z,100984.75
2022-11-05T13:24:19.860Z,100993.50
2022-11-05T13:27:03.808Z,100992.75
2022-11-05T13:29:51.998Z,101000.72
2022-11-05T13:32:35.260Z,100999.75
2022-11-05T13:35:28.706Z,101007.53
2022-11-05T13:38:28.780Z,101006.03
2022-11-05T13:41:27.858Z,101005.59
2022-11-05T13:44:27.648Z,101001.00
2022-11-05T13:47:37.806Z,101002.81
2022-11-05T13:51:05.089Z,100999.31
2022-11-05T13:54:27.254Z,101011.34
2022-11-05T13:57:25.221Z,101011.59
2022-11-05T14:00:17.339Z,101034.53
2022-11-05T14:02:57.950Z,101021.97
2022-11-05T14:05:43.514Z,101029.00
2022-11-05T14:08:27.262Z,101023.69
2022-11-05T14:11:11.822Z,101026.56
2022-11-05T14:13:54.961Z,101034.53
2022-11-05T14:16:51.051Z,101039.00
2022-11-05T14:19:39.512Z,101049.63
2022-11-05T14:22:41.915Z,101048.81
2022-11-05T14:26:00.613Z,101056.16
2022-11-05T14:29:26.925Z,101055.94
2022-11-05T14:32:29.018Z,101064.78
2022-11-05T14:35:30.678Z,101073.69
2022-11-05T14:38:26.780Z,101072.84
2022-11-05T14:41:07.137Z,101071.38
2022-11-05T14:43:53.012Z,101077.41
2022-11-05T14:46:46.177Z,101075.84
2022-11-05T14:49:29.697Z,101081.38
2022-11-05T14:52:11.456Z,101083.06
2022-11-05T14:54:54.457Z,101080.63
2022-11-05T14:58:07.867Z,101087.53
2022-11-05T15:00:51.652Z,101078.22
2022-11-05T15:04:05.958Z,101096.91
2022-11-05T15:07:40.543Z,101100.66
2022-11-05T15:10:22.668Z,101098.13
2022-11-05T15:13:09.586Z,101099.31
2022-11-05T15:15:52.344Z,101104.63
2022-11-05T15:18:36.619Z,101114.38
2022-11-05T15:21:19.800Z,101120.78
2022-11-05T15:24:05.796Z,101127.16
2022-11-05T15:26:55.719Z,101129.16
2022-11-05T15:29:35.011Z,101138.19
2022-11-05T15:32:21.013Z,101144.19
2022-11-05T15:34:59.854Z,101143.66
2022-11-05T15:37:38.075Z,101143.97
2022-11-05T15:40:27.792Z,101145.88
2022-11-05T15:43:23.146Z,101141.63
2022-11-05T15:46:10.860Z,101141.00
2022-11-05T15:48:51.236Z,101140.78
2022-11-05T15:51:30.045Z,101148.00
2022-11-05T15:54:29.007Z,101148.97
2022-11-05T15:57:06.646Z,101153.75
2022-11-05T15:59:50.485Z,101157.78
2022-11-05T16:02:35.836Z,101156.28
2022-11-05T16:05:17.594Z,101162.44
2022-11-05T16:07:57.965Z,101163.06
2022-11-05T16:10:40.163Z,101174.09
2022-11-05T16:13:37.008Z,101179.59
2022-11-05T16:16:36.707Z,101178.28
2022-11-05T16:19:41.456Z,101176.00
2022-11-05T16:22:19.456Z,101179.47
2022-11-05T16:24:56.383Z,101179.91
2022-11-05T16:27:35.389Z,101189.19
2022-11-05T16:30:22.507Z,101198.50
2022-11-05T16:33:11.358Z,101206.09
2022-11-05T16:35:53.346Z,101210.09
2022-11-05T16:38:31.087Z,101206.13
2022-11-05T16:41:07.965Z,101211.78
2022-11-05T16:43:53.987Z,101212.31
2022-11-05T16:46:35.296Z,101220.50
2022-11-05T16:49:16.537Z,101224.31
2022-11-05T16:51:53.868Z,101229.03
2022-11-05T16:54:31.117Z,101228.47
2022-11-05T16:57:11.575Z,101240.97
2022-11-05T16:59:49.237Z,101238.91
2022-11-05T17:02:31.391Z,101238.91
2022-11-05T17:05:21.295Z,101232.63
2022-11-05T17:08:01.601Z,101239.81
2022-11-05T17:10:41.985Z,101242.69
2022-11-05T17:13:20.855Z,101247.19
2022-11-05T17:15:58.458Z,101254.38
2022-11-05T17:18:36.129Z,101248.34
2022-11-05T17:21:16.713Z,101252.69
2022-11-05T17:23:54.086Z,101259.88
2022-11-05T17:26:31.716Z,101267.06
2022-11-05T17:29:09.321Z,101271.50
2022-11-05T17:31:47.562Z,101274.94
2022-11-05T17:34:26.579Z,101275.75
2022-11-05T17:37:08.419Z,101280.88
2022-11-05T17:39:48.217Z,101281.84
2022-11-05T17:42:26.254Z,101283.44
2022-11-05T17:45:04.480Z,101284.28
2022-11-05T17:47:45.375Z,101293.84
2022-11-05T17:50:23.427Z,101301.03
2022-11-05T17:53:05.360Z,101305.47
2022-11-05T17:55:46.272Z,101309.06
2022-11-05T17:58:24.135Z,101305.66
2022-11-05T18:01:02.323Z,101311.72
2022-11-05T18:03:41.537Z,101311.72
2022-11-05T18:06:20.414Z,101315.03
2022-11-05T18:09:01.703Z,101318.41
2022-11-05T18:11:41.527Z,101313.97
2022-11-05T18:14:23.866Z,101312.31
2022-11-05T18:17:03.143Z,101314.75
2022-11-05T18:19:42.296Z,101326.13
2022-11-05T18:22:23.779Z,101324.41
2022-11-05T18:25:06.103Z,101330.28
2022-11-05T18:27:44.858Z,101339.25
2022-11-05T18:30:23.838Z,101335.75
2022-11-05T18:33:01.402Z,101335.75
2022-11-05T18:35:45.190Z,101330.75
2022-11-05T18:38:24.844Z,101333.50
2022-11-05T18:41:10.425Z,101332.53
2022-11-05T18:43:48.229Z,101339.81
2022-11-05T18:46:55.764Z,101338.09
2022-11-05T18:49:25.341Z,101341.78
2022-11-05T18:52:03.387Z,101351.44
2022-11-05T18:54:40.496Z,101342.75
2022-11-05T18:57:21.294Z,101354.16
2022-11-05T18:59:58.851Z,101349.91
2022-11-05T19:02:36.734Z,101360.50
2022-11-05T19:05:30.561Z,101362.13
2022-11-05T19:08:08.686Z,101354.25
2022-11-05T19:10:50.297Z,101356.75
2022-11-05T19:13:31.867Z,101359.38
2022-11-05T19:16:11.746Z,101358.63
2022-11-05T19:18:49.915Z,101366.66
2022-11-05T19:21:29.567Z,101358.63
2022-11-05T19:24:07.995Z,101363.25
2022-11-05T19:26:45.337Z,101359.66
2022-11-05T19:29:25.887Z,101366.00
2022-11-05T19:32:03.377Z,101367.88
2022-11-05T19:34:41.460Z,101369.94
2022-11-05T19:37:19.792Z,101377.09
2022-11-05T19:39:57.761Z,101377.31
2022-11-05T19:42:35.309Z,101378.34
2022-11-05T19:45:43.480Z,101398.66
2022-11-05T19:48:21.394Z,101395.69
2022-11-05T19:50:59.556Z,101397.47
2022-11-05T19:53:43.990Z,101399.69
2022-11-05T19:56:27.297Z,101396.47
2022-11-05T19:59:08.068Z,101396.81
2022-11-05T20:01:49.284Z,101395.44
2022-11-05T20:04:27.006Z,101406.53
2022-11-05T20:07:05.901Z,101398.75
2022-11-05T20:09:47.787Z,101407.78
2022-11-05T20:12:26.963Z,101409.91
2022-11-05T20:15:04.854Z,101411.09
2022-11-05T20:17:45.492Z,101412.63
2022-11-05T20:20:23.135Z,101417.00
2022-11-05T20:23:03.888Z,101412.13
2022-11-05T20:25:49.009Z,101420.72
2022-11-05T20:28:29.108Z,101419.19
2022-11-05T20:31:12.179Z,101416.88
2022-11-05T20:33:54.057Z,101421.34
2022-11-05T20:36:32.888Z,101428.25
2022-11-05T20:39:10.697Z,101422.34
2022-11-05T20:41:47.885Z,101426.06
2022-11-05T20:44:32.360Z,101420.63
2022-11-05T20:47:15.966Z,101425.91
2022-11-05T20:50:01.627Z,101421.50
2022-11-05T20:52:38.394Z,101431.16
2022-11-05T20:55:16.563Z,101429.53
2022-11-05T20:57:54.424Z,101431.22
2022-11-05T21:00:34.011Z,101423.38
2022-11-05T21:03:18.067Z,101427.81
2022-11-05T21:06:09.203Z,101434.09
2022-11-05T21:08:56.167Z,101439.28
